Meteo Giornale » Osservazioni meteo Italia » Catania-Fontanarossa

ore: 19:50 - Osservazioni Meteo Catania-Fontanarossa
Lat. 37° 28' N Lon. 15° 3' E Alt. 11 metri s.l.m.

sereno Europe/Rome

28 °C

Sereno

Temp. 24 Ore

20 °C

33 °C

Est

9.3 Km/h

Dew point 18 °C

Umidità 54 %

Visibilità  10 Km

Il sole sorge alle ore 06:17

Il sole tramonta alle ore 19:49

Data e Ora Cielo e Fenomeni T °C DP °C Um. % Pres. hPa Vis. km Vento km/h
Oggi h: 19:50 sereno Sereno 28 18 54 1015 10 E 9.3
Oggi h: 19:20 sereno Sereno 29 19 54 1015 10 E 9.3
Oggi h: 18:50 poco_nuvoloso Poco Nuvoloso 29 20 58 1015 10 E 9.3
Oggi h: 18:20 poco_nuvoloso Poco Nuvoloso 30 20 55 1015 10 E/SE 9.3
Oggi h: 17:50 poco_nuvoloso Poco Nuvoloso 31 17 43 1014 10 E 14.8
Oggi h: 17:20 poco_nuvoloso Poco Nuvoloso 31 17 43 1015 10 E/SE 11.1
Oggi h: 16:50 poco_nuvoloso Poco Nuvoloso 31 16 40 1015 10 E 14.8
Oggi h: 16:20 poco_nuvoloso Poco Nuvoloso 32 17 40 1015 10 E 14.8
Oggi h: 15:50 poco_nuvoloso Poco Nuvoloso 32 14 33 1015 10 E 14.8
Oggi h: 15:20 poco_nuvoloso Poco Nuvoloso 32 17 40 1015 10 E 14.8
Oggi h: 14:50 poco_nuvoloso Poco Nuvoloso 33 15 33 1015 10 E 18.5
Oggi h: 14:20 poco_nuvoloso Poco Nuvoloso 32 16 38 1015 10 E 16.7
Oggi h: 13:50 poco_nuvoloso Poco Nuvoloso 32 18 43 1015 10 E 18.5
Oggi h: 13:20 sereno Sereno 32 15 35 1016 10 E 16.7
Oggi h: 12:50 sereno Sereno 31 17 43 1016 10 E 16.7
Oggi h: 12:20 sereno Sereno 31 16 40 1016 10 E 16.7
Oggi h: 11:50 sereno Sereno 31 16 40 1016 10 E 16.7
Oggi h: 11:20 sereno Sereno 32 13 31 1016 10 E 14.8
Oggi h: 10:50 sereno Sereno 33 10 24 1016 10 N 3.7
Oggi h: 10:20 sereno Sereno 31 10 27 1016 10 O/SO 7.4
Oggi h: 09:50 sereno Sereno 30 11 30 1016 10 O/SO 13
Oggi h: 09:20 sereno Sereno 28 14 42 1016 10 O/SO 11.1
Oggi h: 08:50 sereno Sereno 26 14 47 1016 10 SO 9.3
Oggi h: 08:20 sereno Sereno 24 15 57 1016 10 O/SO 11.1
Oggi h: 07:50 sereno Sereno 23 16 64 1016 10 O/SO 7.4
Oggi h: 07:20 sereno Sereno 21 17 77 1015 10 O/SO 9.3
Oggi h: 06:50 sereno Sereno 20 16 77 1015 10 O/SO 11.1
Oggi h: 06:20 sereno Sereno 20 15 72 1015 10 O 9.3
Oggi h: 05:50 sereno Sereno 20 16 77 1015 10 O/SO 7.4
Oggi h: 05:20 sereno Sereno 21 16 73 1015 10 N 3.7
Oggi h: 04:50 sereno Sereno 21 17 77 1015 10 O/SO 7.4
Oggi h: 04:20 sereno Sereno 21 17 77 1015 10 N 3.7
Oggi h: 03:50 sereno Sereno 21 17 77 1015 10 N 1.8
Oggi h: 03:20 sereno Sereno 21 16 73 1015 10 O 7.4
Oggi h: 02:50 sereno Sereno 21 16 73 1015 10 N 3.7
Oggi h: 02:20 sereno Sereno 22 18 78 1015 10 N 5.5
Oggi h: 01:50 sereno Sereno 22 18 78 1015 10 N 5.5
Oggi h: 01:20 sereno Sereno 23 18 73 1015 10 N 3.7
Oggi h: 00:50 sereno Sereno 23 18 73 1015 10 O/NO 7.4
Oggi h: 00:20 sereno Sereno 24 18 69 1015 10 O/NO 7.4
Ieri h: 23:50 sereno Sereno 24 18 69 1015 10 O 9.3
Ieri h: 23:20 sereno Sereno 25 18 65 1015 10 N 1.8
Ieri h: 22:50 sereno Sereno 25 18 65 1015 10 N 1.8
Ieri h: 22:20 sereno Sereno 27 19 61 1015 10 N 3.7
Ieri h: 21:50 sereno Sereno 27 19 61 1015 10 N 1.8
Ieri h: 21:20 sereno Sereno 27 18 57 1015 10 N 3.7
Ieri h: 20:50 sereno Sereno 28 18 54 1014 10 N 1.8